createdAt,value
2018-05-15T00:00:54.668Z,17.82
2018-05-15T00:01:55.382Z,17.87
2018-05-15T00:02:56.100Z,17.72
2018-05-15T00:03:56.826Z,17.76
2018-05-15T00:04:57.542Z,17.79
2018-05-15T00:05:58.262Z,17.67
2018-05-15T00:06:58.976Z,17.79
2018-05-15T00:07:59.702Z,17.78
2018-05-15T00:09:00.426Z,17.74
2018-05-15T00:10:01.145Z,17.70
2018-05-15T00:11:01.866Z,17.67
2018-05-15T00:12:02.597Z,17.63
2018-05-15T00:13:03.303Z,17.67
2018-05-15T00:14:04.027Z,17.67
2018-05-15T00:15:04.742Z,17.68
2018-05-15T00:16:05.456Z,17.67
2018-05-15T00:17:06.170Z,17.67
2018-05-15T00:18:06.883Z,17.68
2018-05-15T00:19:07.597Z,17.63
2018-05-15T00:20:08.312Z,17.60
2018-05-15T00:21:09.025Z,17.60
2018-05-15T00:22:09.739Z,17.59
2018-05-15T00:23:10.457Z,17.64
2018-05-15T00:24:11.177Z,17.54
2018-05-15T00:25:11.901Z,17.54
2018-05-15T00:26:12.617Z,17.54
2018-05-15T00:27:13.332Z,17.49
2018-05-15T00:28:14.058Z,17.54
2018-05-15T00:29:14.773Z,17.49
2018-05-15T00:30:15.496Z,17.45
2018-05-15T00:31:16.209Z,17.44
2018-05-15T00:32:16.931Z,17.46
2018-05-15T00:33:17.647Z,17.44
2018-05-15T00:34:18.371Z,17.49
2018-05-15T00:35:19.083Z,17.38
2018-05-15T00:36:19.796Z,17.38
2018-05-15T00:37:20.509Z,17.38
2018-05-15T00:38:21.222Z,17.45
2018-05-15T00:39:21.936Z,17.41
2018-05-15T00:40:22.646Z,17.38
2018-05-15T00:41:23.361Z,17.36
2018-05-15T00:42:24.086Z,17.36
2018-05-15T00:43:24.798Z,17.34
2018-05-15T00:44:25.511Z,17.34
2018-05-15T00:45:26.226Z,17.33
2018-05-15T00:46:26.937Z,17.38
2018-05-15T00:47:27.651Z,17.29
2018-05-15T00:48:28.366Z,17.24
2018-05-15T00:49:29.079Z,17.15
2018-05-15T00:50:29.792Z,17.22
2018-05-15T00:51:30.507Z,17.19
2018-05-15T00:52:31.218Z,17.20
2018-05-15T00:53:31.938Z,17.23
2018-05-15T00:54:32.667Z,17.27
2018-05-15T00:55:33.384Z,17.11
2018-05-15T00:56:34.101Z,17.19
2018-05-15T00:57:34.816Z,17.08
2018-05-15T00:58:35.529Z,17.14
2018-05-15T00:59:36.245Z,17.19
2018-05-15T01:00:36.958Z,17.16
2018-05-15T01:01:37.683Z,17.08
2018-05-15T01:02:38.399Z,17.12
2018-05-15T01:03:39.111Z,17.01
2018-05-15T01:04:39.835Z,17.06
2018-05-15T01:05:40.547Z,17.08
2018-05-15T01:06:41.278Z,17.02
2018-05-15T01:07:42.002Z,17.02
2018-05-15T01:08:42.717Z,17.05
2018-05-15T01:09:43.430Z,16.96
2018-05-15T01:10:44.145Z,17.05
2018-05-15T01:11:44.859Z,16.99
2018-05-15T01:12:45.572Z,17.02
2018-05-15T01:13:46.291Z,16.91
2018-05-15T01:14:47.001Z,16.96
2018-05-15T01:15:47.716Z,16.94
2018-05-15T01:16:48.431Z,16.97
2018-05-15T01:17:49.156Z,17.02
2018-05-15T01:18:49.883Z,16.96
2018-05-15T01:19:50.595Z,16.91
2018-05-15T01:20:51.324Z,16.90
2018-05-15T01:21:52.050Z,16.96
2018-05-15T01:22:52.765Z,16.90
2018-05-15T01:23:53.477Z,16.91
2018-05-15T01:24:54.191Z,16.84
2018-05-15T01:25:54.904Z,16.81
2018-05-15T01:26:55.630Z,16.89
2018-05-15T01:27:56.345Z,16.93
2018-05-15T01:28:57.059Z,16.81
2018-05-15T01:29:57.774Z,16.87
2018-05-15T01:30:58.501Z,16.78
2018-05-15T01:31:59.219Z,16.79
2018-05-15T01:32:59.946Z,16.76
2018-05-15T01:34:00.659Z,16.76
2018-05-15T01:35:01.383Z,16.74
2018-05-15T01:36:02.101Z,16.71
2018-05-15T01:37:02.810Z,16.74
2018-05-15T01:38:03.523Z,16.71
2018-05-15T01:39:04.245Z,16.71
2018-05-15T01:40:04.962Z,16.71
2018-05-15T01:41:05.687Z,16.65
2018-05-15T01:42:06.412Z,16.71
2018-05-15T01:43:07.125Z,16.61
2018-05-15T01:44:07.854Z,16.57
2018-05-15T01:45:08.578Z,16.58
2018-05-15T01:46:09.293Z,16.54
2018-05-15T01:47:10.007Z,16.56
2018-05-15T01:48:10.721Z,16.49
2018-05-15T01:49:11.447Z,16.51
2018-05-15T01:50:12.173Z,16.49
2018-05-15T01:51:12.887Z,16.56
2018-05-15T01:52:13.614Z,16.54
2018-05-15T01:53:14.328Z,16.50
2018-05-15T01:54:15.042Z,16.57
2018-05-15T01:55:15.756Z,16.50
2018-05-15T01:56:16.470Z,16.41
2018-05-15T01:57:17.183Z,16.43
2018-05-15T01:58:17.896Z,16.49
2018-05-15T01:59:18.609Z,16.35
2018-05-15T02:00:19.322Z,16.36
2018-05-15T02:01:20.035Z,16.35
2018-05-15T02:02:20.750Z,16.42
2018-05-15T02:03:21.463Z,16.36
2018-05-15T02:04:22.174Z,16.35
2018-05-15T02:05:22.888Z,16.31
2018-05-15T02:06:23.602Z,16.31
2018-05-15T02:07:24.313Z,16.29
2018-05-15T02:08:25.026Z,16.29
2018-05-15T02:09:25.740Z,16.26
2018-05-15T02:10:26.469Z,16.31
2018-05-15T02:11:27.194Z,16.35
2018-05-15T02:12:27.908Z,16.26
2018-05-15T02:13:28.623Z,16.16
2018-05-15T02:14:29.341Z,16.17
2018-05-15T02:15:30.049Z,16.28
2018-05-15T02:16:30.766Z,16.29
2018-05-15T02:17:31.494Z,16.16
2018-05-15T02:18:32.208Z,16.21
2018-05-15T02:19:32.921Z,16.21
2018-05-15T02:20:33.634Z,16.17
2018-05-15T02:21:34.348Z,16.13
2018-05-15T02:22:35.063Z,16.16
2018-05-15T02:23:35.781Z,16.13
2018-05-15T02:24:36.493Z,16.08
2018-05-15T02:25:37.218Z,16.04
2018-05-15T02:26:37.944Z,16.02
2018-05-15T02:27:38.671Z,16.04
2018-05-15T02:28:39.384Z,16.05
2018-05-15T02:29:40.112Z,16.01
2018-05-15T02:30:40.844Z,15.95
2018-05-15T02:31:41.552Z,16.05
2018-05-15T02:32:42.269Z,15.98
2018-05-15T02:33:42.980Z,16.00
2018-05-15T02:34:43.710Z,15.98
2018-05-15T02:35:44.425Z,16.00
2018-05-15T02:36:45.151Z,15.94
2018-05-15T02:37:45.865Z,15.98
2018-05-15T02:38:46.577Z,15.88
2018-05-15T02:39:47.290Z,15.84
2018-05-15T02:40:48.005Z,15.80
2018-05-15T02:41:48.717Z,15.91
2018-05-15T02:42:49.447Z,15.80
2018-05-15T02:43:50.169Z,15.82
2018-05-15T02:44:50.884Z,15.83
2018-05-15T02:45:51.612Z,15.75
2018-05-15T02:46:52.326Z,15.80
2018-05-15T02:47:53.041Z,15.77
2018-05-15T02:48:53.753Z,15.76
2018-05-15T02:49:54.481Z,15.77
2018-05-15T02:50:55.193Z,15.72
2018-05-15T02:51:55.906Z,15.75
2018-05-15T02:52:56.631Z,15.77
2018-05-15T02:53:57.356Z,15.67
2018-05-15T02:54:58.071Z,15.62
2018-05-15T02:55:58.788Z,15.64
2018-05-15T02:56:59.506Z,15.61
2018-05-15T02:58:00.217Z,15.57
2018-05-15T02:59:00.931Z,15.59
2018-05-15T03:00:01.658Z,15.54
2018-05-15T03:01:02.373Z,15.52
2018-05-15T03:02:03.087Z,15.57
2018-05-15T03:03:03.804Z,15.58
2018-05-15T03:04:04.528Z,15.47
2018-05-15T03:05:05.243Z,15.47
2018-05-15T03:06:05.971Z,15.62
2018-05-15T03:07:06.684Z,15.51
2018-05-15T03:08:07.398Z,15.43
2018-05-15T03:09:08.113Z,15.42
2018-05-15T03:10:08.831Z,15.37
2018-05-15T03:11:09.541Z,15.43
2018-05-15T03:12:10.255Z,15.47
2018-05-15T03:13:10.969Z,15.44
2018-05-15T03:14:11.694Z,15.51
2018-05-15T03:15:12.411Z,15.40
2018-05-15T03:16:13.127Z,15.40
2018-05-15T03:17:13.842Z,15.37
2018-05-15T03:18:14.556Z,15.37
2018-05-15T03:19:15.272Z,15.29
2018-05-15T03:20:15.989Z,15.33
2018-05-15T03:21:16.704Z,15.27
2018-05-15T03:22:17.423Z,15.36
2018-05-15T03:23:18.138Z,15.25
2018-05-15T03:24:18.858Z,15.29
2018-05-15T03:25:19.571Z,15.19
2018-05-15T03:26:20.288Z,15.18
2018-05-15T03:27:20.999Z,15.22
2018-05-15T03:28:21.727Z,15.14
2018-05-15T03:29:22.455Z,15.10
2018-05-15T03:30:23.171Z,15.17
2018-05-15T03:31:23.885Z,15.11
2018-05-15T03:32:24.601Z,15.14
2018-05-15T03:33:25.330Z,15.19
2018-05-15T03:34:26.047Z,15.03
2018-05-15T03:35:26.761Z,15.03
2018-05-15T03:36:27.477Z,15.09
2018-05-15T03:37:28.196Z,15.03
2018-05-15T03:38:28.912Z,15.07
2018-05-15T03:39:29.687Z,15.04
2018-05-15T03:40:30.344Z,15.06
2018-05-15T03:41:31.057Z,15.04
2018-05-15T03:42:31.774Z,15.06
2018-05-15T03:43:32.492Z,15.06
2018-05-15T03:44:33.209Z,15.07
2018-05-15T03:45:33.939Z,14.94
2018-05-15T03:46:34.658Z,15.00
2018-05-15T03:47:35.376Z,15.00
2018-05-15T03:48:36.093Z,14.96
2018-05-15T03:49:36.810Z,14.99
2018-05-15T03:50:37.527Z,14.94
2018-05-15T03:51:38.244Z,15.04
2018-05-15T03:52:38.964Z,14.96
2018-05-15T03:53:39.680Z,14.96
2018-05-15T03:54:40.400Z,14.96
2018-05-15T03:55:41.114Z,15.02
2018-05-15T03:56:41.832Z,14.96
2018-05-15T03:57:42.549Z,14.97
2018-05-15T03:58:43.267Z,14.92
2018-05-15T03:59:43.984Z,14.94
2018-05-15T04:00:44.700Z,14.97
2018-05-15T04:01:45.417Z,14.84
2018-05-15T04:02:46.141Z,14.94
2018-05-15T04:03:46.856Z,14.99
2018-05-15T04:04:47.585Z,14.96
2018-05-15T04:05:48.302Z,14.94
2018-05-15T04:06:49.019Z,14.94
2018-05-15T04:07:49.738Z,14.86
2018-05-15T04:08:50.453Z,14.94
2018-05-15T04:09:51.171Z,14.92
2018-05-15T04:10:51.961Z,14.91
2018-05-15T04:11:52.609Z,14.96
2018-05-15T04:12:53.328Z,14.92
2018-05-15T04:13:54.042Z,14.92
2018-05-15T04:14:54.760Z,14.91
2018-05-15T04:15:55.477Z,15.03
2018-05-15T04:16:56.195Z,15.00
2018-05-15T04:17:56.931Z,15.00
2018-05-15T04:18:57.650Z,14.92
2018-05-15T04:19:58.381Z,15.00
2018-05-15T04:20:59.101Z,15.02
2018-05-15T04:21:59.832Z,15.00
2018-05-15T04:23:00.550Z,15.06
2018-05-15T04:24:01.343Z,15.06
2018-05-15T04:25:02.003Z,15.04
2018-05-15T04:26:02.722Z,15.04
2018-05-15T04:27:03.441Z,15.07
2018-05-15T04:28:04.289Z,15.10
2018-05-15T04:29:04.881Z,15.09
2018-05-15T04:30:05.598Z,15.09
2018-05-15T04:31:06.317Z,15.06
2018-05-15T04:32:07.034Z,15.14
2018-05-15T04:33:07.752Z,15.09
2018-05-15T04:34:08.472Z,15.11
2018-05-15T04:35:09.312Z,15.15
2018-05-15T04:36:09.910Z,15.22
2018-05-15T04:37:10.629Z,15.25
2018-05-15T04:38:11.349Z,15.19
2018-05-15T04:39:12.081Z,15.24
2018-05-15T04:40:12.801Z,15.22
2018-05-15T04:41:13.523Z,15.25
2018-05-15T04:42:14.239Z,15.27
2018-05-15T04:43:14.960Z,15.31
2018-05-15T04:44:15.677Z,15.29
2018-05-15T04:45:16.395Z,15.29
2018-05-15T04:46:17.126Z,15.25
2018-05-15T04:47:17.843Z,15.35
2018-05-15T04:48:18.572Z,15.35
2018-05-15T04:49:19.308Z,15.36
2018-05-15T04:50:20.024Z,15.42
2018-05-15T04:51:20.743Z,15.43
2018-05-15T04:52:21.476Z,15.44
2018-05-15T04:53:22.209Z,15.43
2018-05-15T04:54:22.928Z,15.46
2018-05-15T04:55:23.648Z,15.47
2018-05-15T04:56:24.369Z,15.55
2018-05-15T04:57:25.104Z,15.47
2018-05-15T04:58:25.819Z,15.52
2018-05-15T04:59:26.537Z,15.64
2018-05-15T05:00:27.270Z,15.58
2018-05-15T05:01:28.001Z,15.70
2018-05-15T05:02:28.719Z,15.65
2018-05-15T05:03:29.449Z,15.65
2018-05-15T05:04:30.168Z,15.75
2018-05-15T05:05:30.888Z,15.76
2018-05-15T05:06:31.618Z,15.84
2018-05-15T05:07:32.336Z,15.79
2018-05-15T05:08:33.055Z,15.80
2018-05-15T05:09:33.774Z,15.84
2018-05-15T05:10:34.496Z,15.94
2018-05-15T05:11:35.215Z,15.97
2018-05-15T05:12:35.948Z,16.02
2018-05-15T05:13:36.666Z,16.01
2018-05-15T05:14:37.398Z,16.05
2018-05-15T05:15:38.119Z,16.08
2018-05-15T05:16:38.840Z,16.12
2018-05-15T05:17:39.559Z,16.05
2018-05-15T05:18:40.280Z,16.17
2018-05-15T05:19:41.000Z,16.24
2018-05-15T05:20:41.720Z,16.35
2018-05-15T05:21:42.437Z,16.32
2018-05-15T05:22:43.159Z,16.33
2018-05-15T05:23:43.880Z,16.38
2018-05-15T05:24:44.611Z,16.43
2018-05-15T05:25:45.332Z,16.47
2018-05-15T05:26:46.049Z,16.51
2018-05-15T05:27:46.780Z,16.54
2018-05-15T05:28:47.499Z,16.56
2018-05-15T05:29:48.216Z,16.57
2018-05-15T05:30:48.947Z,16.68
2018-05-15T05:31:49.667Z,16.64
2018-05-15T05:32:50.386Z,16.72
2018-05-15T05:33:51.109Z,16.78
2018-05-15T05:34:51.824Z,16.83
2018-05-15T05:35:52.545Z,16.89
2018-05-15T05:36:53.277Z,16.86
2018-05-15T05:37:54.022Z,16.87
2018-05-15T05:38:54.762Z,16.94
2018-05-15T05:39:55.495Z,16.96
2018-05-15T05:40:56.214Z,17.04
2018-05-15T05:41:56.934Z,17.01
2018-05-15T05:42:57.659Z,17.04
2018-05-15T05:43:58.389Z,17.05
2018-05-15T05:44:59.111Z,17.14
2018-05-15T05:45:59.830Z,17.16
2018-05-15T05:47:00.569Z,17.26
2018-05-15T05:48:01.297Z,17.20
2018-05-15T05:49:02.017Z,17.30
2018-05-15T05:50:02.751Z,17.33
2018-05-15T05:51:03.482Z,17.33
2018-05-15T05:52:04.260Z,17.45
2018-05-15T05:53:04.933Z,17.41
2018-05-15T05:54:05.652Z,17.45
2018-05-15T05:55:06.371Z,17.52
2018-05-15T05:56:07.091Z,17.48
2018-05-15T05:57:07.824Z,17.67
2018-05-15T05:58:08.546Z,17.57
2018-05-15T05:59:09.266Z,17.64
2018-05-15T06:00:09.986Z,17.70
2018-05-15T06:01:10.719Z,17.74
2018-05-15T06:02:11.439Z,17.80
2018-05-15T06:03:12.162Z,17.86
2018-05-15T06:04:12.895Z,17.90
2018-05-15T06:05:13.616Z,17.87
2018-05-15T06:06:14.337Z,17.89
2018-05-15T06:07:15.164Z,17.98
2018-05-15T06:08:15.783Z,18.04
2018-05-15T06:09:16.504Z,17.98
2018-05-15T06:10:17.240Z,18.08
2018-05-15T06:11:17.963Z,18.18
2018-05-15T06:12:18.685Z,18.23
2018-05-15T06:13:19.417Z,18.20
2018-05-15T06:14:20.235Z,18.34
2018-05-15T06:15:20.860Z,18.29
2018-05-15T06:16:21.580Z,18.33
2018-05-15T06:17:22.301Z,18.41
2018-05-15T06:18:23.021Z,18.35
2018-05-15T06:19:23.740Z,18.41
2018-05-15T06:20:24.467Z,18.50
2018-05-15T06:21:25.183Z,18.66
2018-05-15T06:22:25.905Z,18.59
2018-05-15T06:23:26.627Z,18.73
2018-05-15T06:24:27.351Z,18.66
2018-05-15T06:25:28.069Z,18.70
2018-05-15T06:26:28.791Z,18.66
2018-05-15T06:27:29.515Z,18.65
2018-05-15T06:28:30.232Z,18.78
2018-05-15T06:29:30.954Z,18.78
2018-05-15T06:30:31.678Z,18.92
2018-05-15T06:31:32.410Z,18.92
2018-05-15T06:32:33.131Z,18.93
2018-05-15T06:33:33.854Z,19.04
2018-05-15T06:34:34.573Z,19.04
2018-05-15T06:35:35.297Z,19.16
2018-05-15T06:36:36.016Z,19.11
2018-05-15T06:37:36.738Z,19.12
2018-05-15T06:38:37.504Z,19.26
2018-05-15T06:39:38.188Z,19.34
2018-05-15T06:40:38.918Z,19.36
2018-05-15T06:41:39.640Z,19.47
2018-05-15T06:42:40.359Z,19.45
2018-05-15T06:43:41.094Z,19.49
2018-05-15T06:44:41.846Z,19.54
2018-05-15T06:45:42.552Z,19.54
2018-05-15T06:46:43.285Z,19.69
2018-05-15T06:47:44.008Z,19.59
2018-05-15T06:48:44.741Z,19.64
2018-05-15T06:49:45.464Z,19.63
2018-05-15T06:50:46.183Z,19.81
2018-05-15T06:51:46.904Z,19.76
2018-05-15T06:52:47.626Z,19.77
2018-05-15T06:53:48.353Z,19.86
2018-05-15T06:54:49.083Z,19.88
2018-05-15T06:55:49.803Z,19.91
2018-05-15T06:56:50.539Z,20.00
2018-05-15T06:57:51.260Z,20.04
2018-05-15T06:58:51.983Z,20.10
2018-05-15T06:59:52.707Z,20.11
2018-05-15T07:00:53.428Z,20.24
2018-05-15T07:01:54.193Z,20.22
2018-05-15T07:02:54.876Z,20.21
2018-05-15T07:03:55.613Z,20.24
2018-05-15T07:04:56.349Z,20.26
2018-05-15T07:05:57.080Z,20.32
2018-05-15T07:06:57.802Z,20.36
2018-05-15T07:07:58.525Z,20.48
2018-05-15T07:08:59.252Z,20.59
2018-05-15T07:09:59.977Z,20.55
2018-05-15T07:11:00.698Z,20.62
2018-05-15T07:12:01.420Z,20.69
2018-05-15T07:13:02.148Z,20.66
2018-05-15T07:14:02.976Z,20.65
2018-05-15T07:15:03.608Z,20.74
2018-05-15T07:16:04.337Z,20.69
2018-05-15T07:17:05.063Z,20.75
2018-05-15T07:18:05.793Z,20.81
2018-05-15T07:19:06.535Z,20.93
2018-05-15T07:20:07.265Z,20.96
2018-05-15T07:21:08.011Z,21.15
2018-05-15T07:22:08.743Z,21.25
2018-05-15T07:23:09.468Z,21.42
2018-05-15T07:24:10.202Z,21.52
2018-05-15T07:25:10.940Z,21.57
2018-05-15T07:26:11.669Z,21.40
2018-05-15T07:27:12.403Z,21.60
2018-05-15T07:28:13.132Z,21.66
2018-05-15T07:29:13.876Z,21.73
2018-05-15T07:30:14.618Z,21.87
2018-05-15T07:31:15.349Z,21.77
2018-05-15T07:32:16.082Z,21.89
2018-05-15T07:33:16.891Z,22.13
2018-05-15T07:34:17.546Z,22.29
2018-05-15T07:35:18.278Z,22.35
2018-05-15T07:36:19.025Z,22.51
2018-05-15T07:37:19.757Z,22.51
2018-05-15T07:38:20.491Z,22.69
2018-05-15T07:39:21.236Z,22.83
2018-05-15T07:40:22.050Z,22.90
2018-05-15T07:41:22.712Z,22.93
2018-05-15T07:42:23.443Z,22.78
2018-05-15T07:43:24.190Z,22.91
2018-05-15T07:44:24.927Z,23.05
2018-05-15T07:45:25.660Z,23.09
2018-05-15T07:46:26.405Z,23.21
2018-05-15T07:47:27.136Z,23.34
2018-05-15T07:48:27.868Z,23.46
2018-05-15T07:49:28.602Z,23.47
2018-05-15T07:50:29.340Z,23.55
2018-05-15T07:51:30.071Z,23.63
2018-05-15T07:52:30.804Z,23.69
2018-05-15T07:53:31.546Z,23.80
2018-05-15T07:54:32.269Z,23.93
2018-05-15T07:55:33.002Z,23.93
2018-05-15T07:56:33.738Z,24.02
2018-05-15T07:57:34.471Z,24.17
2018-05-15T07:58:35.204Z,24.18
2018-05-15T07:59:35.939Z,24.45
2018-05-15T08:00:36.673Z,24.47
2018-05-15T08:01:37.408Z,24.60
2018-05-15T08:02:38.148Z,24.92
2018-05-15T08:03:38.887Z,24.98
2018-05-15T08:04:39.620Z,25.17
2018-05-15T08:05:40.353Z,25.51
2018-05-15T08:06:41.089Z,25.51
2018-05-15T08:07:41.827Z,25.18
2018-05-15T08:08:42.558Z,24.98
2018-05-15T08:09:43.294Z,25.31
2018-05-15T08:10:44.028Z,25.13
2018-05-15T08:11:44.760Z,25.21
2018-05-15T08:12:45.501Z,25.43
2018-05-15T08:13:46.240Z,25.43
2018-05-15T08:14:46.977Z,25.43
2018-05-15T08:15:47.711Z,25.14
2018-05-15T08:16:48.446Z,25.62
2018-05-15T08:17:49.184Z,25.66
2018-05-15T08:18:49.921Z,25.81
2018-05-15T08:19:50.658Z,25.77
2018-05-15T08:20:51.396Z,25.81
2018-05-15T08:21:52.134Z,26.15
2018-05-15T08:22:52.870Z,26.41
2018-05-15T08:23:53.618Z,26.60
2018-05-15T08:24:54.361Z,26.73
2018-05-15T08:25:55.115Z,26.73
2018-05-15T08:26:55.859Z,26.75
2018-05-15T08:27:56.600Z,26.93
2018-05-15T08:28:57.342Z,27.00
2018-05-15T08:29:58.100Z,27.07
2018-05-15T08:30:58.857Z,27.12
2018-05-15T08:31:59.600Z,27.21
2018-05-15T08:33:00.344Z,26.97
2018-05-15T08:34:01.084Z,27.03
2018-05-15T08:35:01.839Z,26.58
2018-05-15T08:36:02.586Z,26.56
2018-05-15T08:37:03.330Z,26.83
2018-05-15T08:38:04.089Z,27.00
2018-05-15T08:39:04.831Z,27.30
2018-05-15T08:40:05.586Z,27.60
2018-05-15T08:41:06.343Z,27.48
2018-05-15T08:42:07.102Z,27.14
2018-05-15T08:43:07.856Z,27.18
2018-05-15T08:44:08.593Z,26.93
2018-05-15T08:45:09.334Z,27.02
2018-05-15T08:46:10.076Z,26.73
2018-05-15T08:47:10.815Z,26.23
2018-05-15T08:48:11.567Z,26.41
2018-05-15T08:49:12.310Z,26.43
2018-05-15T08:50:13.052Z,26.34
2018-05-15T08:51:13.796Z,26.44
2018-05-15T08:52:14.538Z,26.40
2018-05-15T08:53:15.280Z,26.59
2018-05-15T08:54:16.021Z,26.84
2018-05-15T08:55:16.766Z,26.81
2018-05-15T08:56:17.509Z,27.17
2018-05-15T08:57:18.266Z,27.29
2018-05-15T08:58:19.009Z,27.44
2018-05-15T08:59:19.752Z,27.71
2018-05-15T09:00:20.508Z,27.78
2018-05-15T09:01:21.250Z,27.89
2018-05-15T09:02:21.990Z,27.82
2018-05-15T09:03:22.745Z,27.89
2018-05-15T09:04:23.488Z,28.19
2018-05-15T09:05:24.231Z,28.37
2018-05-15T09:06:24.976Z,28.63
2018-05-15T09:07:25.719Z,28.96
2018-05-15T09:08:26.460Z,28.49
2018-05-15T09:09:27.206Z,28.30
2018-05-15T09:10:27.963Z,28.27
2018-05-15T09:11:28.704Z,28.05
2018-05-15T09:12:29.467Z,28.07
2018-05-15T09:13:30.214Z,27.60
2018-05-15T09:14:30.957Z,27.87
2018-05-15T09:15:31.699Z,27.89
2018-05-15T09:16:32.437Z,28.29
2018-05-15T09:17:33.184Z,28.39
2018-05-15T09:18:33.917Z,28.66
2018-05-15T09:19:34.664Z,28.52
2018-05-15T09:20:35.402Z,27.80
2018-05-15T09:21:36.143Z,27.36
2018-05-15T09:22:36.882Z,27.51
2018-05-15T09:23:37.629Z,27.15
2018-05-15T09:24:38.368Z,26.26
2018-05-15T09:25:39.108Z,26.74
2018-05-15T09:26:39.852Z,26.84
2018-05-15T09:27:40.611Z,27.20
2018-05-15T09:28:41.366Z,27.64
2018-05-15T09:29:42.194Z,27.95
2018-05-15T09:30:42.863Z,28.14
2018-05-15T09:31:43.621Z,27.63
2018-05-15T09:32:44.359Z,27.83
2018-05-15T09:33:45.102Z,28.05
2018-05-15T09:34:45.846Z,27.98
2018-05-15T09:35:46.588Z,27.67
2018-05-15T09:36:47.341Z,27.54
2018-05-15T09:37:48.095Z,27.39
2018-05-15T09:38:48.846Z,27.42
2018-05-15T09:39:49.601Z,27.86
2018-05-15T09:40:50.339Z,27.82
2018-05-15T09:41:51.093Z,28.10
2018-05-15T09:42:51.845Z,28.05
2018-05-15T09:43:52.582Z,28.17
2018-05-15T09:44:53.322Z,27.29
2018-05-15T09:45:54.065Z,27.40
2018-05-15T09:46:54.825Z,27.75
2018-05-15T09:47:55.550Z,27.77
2018-05-15T09:48:56.287Z,27.83
2018-05-15T09:49:57.028Z,27.65
2018-05-15T09:50:57.771Z,27.75
2018-05-15T09:51:58.506Z,27.89
2018-05-15T09:52:59.244Z,28.05
2018-05-15T09:53:59.981Z,28.10
2018-05-15T09:55:00.726Z,28.26
2018-05-15T09:56:01.467Z,28.27
2018-05-15T09:57:02.206Z,28.42
2018-05-15T09:58:02.944Z,28.23
2018-05-15T09:59:03.689Z,28.60
2018-05-15T10:00:04.440Z,28.30
2018-05-15T10:01:05.179Z,28.51
2018-05-15T10:02:05.919Z,29.02
2018-05-15T10:03:06.658Z,29.49
2018-05-15T10:04:07.396Z,29.51
2018-05-15T10:05:08.137Z,29.47
2018-05-15T10:06:08.878Z,29.14
2018-05-15T10:07:09.618Z,29.20
2018-05-15T10:08:10.453Z,29.45
2018-05-15T10:09:11.099Z,29.19
2018-05-15T10:10:11.842Z,29.17
2018-05-15T10:11:12.584Z,29.04
2018-05-15T10:12:13.337Z,29.13
2018-05-15T10:13:14.076Z,28.86
2018-05-15T10:14:14.916Z,28.88
2018-05-15T10:15:15.584Z,28.64
2018-05-15T10:16:16.322Z,28.54
2018-05-15T10:17:17.057Z,28.48
2018-05-15T10:18:17.798Z,28.52
2018-05-15T10:19:18.540Z,28.60
2018-05-15T10:20:19.279Z,28.27
2018-05-15T10:21:20.022Z,27.77
2018-05-15T10:22:20.766Z,27.05
2018-05-15T10:23:21.506Z,26.97
2018-05-15T10:24:22.245Z,26.90
2018-05-15T10:25:22.987Z,27.05
2018-05-15T10:26:23.813Z,27.33
2018-05-15T10:27:24.478Z,27.96
2018-05-15T10:28:25.216Z,27.49
2018-05-15T10:29:25.967Z,27.00
2018-05-15T10:30:26.720Z,26.66
2018-05-15T10:31:27.457Z,26.51
2018-05-15T10:32:28.197Z,26.66
2018-05-15T10:33:28.939Z,26.84
2018-05-15T10:34:29.676Z,26.62
2018-05-15T10:35:30.421Z,26.37
2018-05-15T10:36:31.192Z,26.02
2018-05-15T10:37:31.915Z,26.71
2018-05-15T10:38:32.666Z,26.59
2018-05-15T10:39:33.410Z,26.66
2018-05-15T10:40:34.167Z,27.05
2018-05-15T10:41:34.909Z,27.07
2018-05-15T10:42:35.651Z,26.93
2018-05-15T10:43:36.391Z,26.84
2018-05-15T10:44:37.130Z,27.48
2018-05-15T10:45:37.870Z,28.11
2018-05-15T10:46:38.611Z,28.57
2018-05-15T10:47:39.349Z,28.62
2018-05-15T10:48:40.091Z,28.42
2018-05-15T10:49:40.829Z,27.85
2018-05-15T10:50:41.569Z,28.57
2018-05-15T10:51:42.317Z,28.02
2018-05-15T10:52:43.060Z,27.77
2018-05-15T10:53:43.805Z,27.47
2018-05-15T10:54:44.556Z,28.00
2018-05-15T10:55:45.294Z,28.14
2018-05-15T10:56:46.047Z,28.37
2018-05-15T10:57:46.789Z,28.79
2018-05-15T10:58:47.532Z,28.69
2018-05-15T10:59:48.272Z,28.57
2018-05-15T11:00:49.013Z,28.29
2018-05-15T11:01:49.755Z,28.56
2018-05-15T11:02:50.502Z,28.42
2018-05-15T11:03:51.249Z,27.83
2018-05-15T11:04:51.989Z,27.45
2018-05-15T11:05:52.728Z,27.42
2018-05-15T11:06:53.468Z,27.22
2018-05-15T11:07:54.209Z,27.40
2018-05-15T11:08:54.948Z,27.59
2018-05-15T11:09:55.688Z,27.14
2018-05-15T11:10:56.433Z,26.75
2018-05-15T11:11:57.183Z,27.02
2018-05-15T11:12:57.924Z,27.59
2018-05-15T11:13:58.681Z,27.92
2018-05-15T11:14:59.420Z,28.47
2018-05-15T11:16:00.164Z,28.33
2018-05-15T11:17:00.904Z,28.41
2018-05-15T11:18:01.641Z,27.29
2018-05-15T11:19:02.393Z,27.08
2018-05-15T11:20:03.133Z,26.89
2018-05-15T11:21:03.876Z,27.30
2018-05-15T11:22:04.633Z,27.74
2018-05-15T11:23:05.393Z,28.04
2018-05-15T11:24:06.127Z,28.25
2018-05-15T11:25:06.869Z,27.82
2018-05-15T11:26:07.609Z,28.10
2018-05-15T11:27:08.352Z,28.32
2018-05-15T11:28:09.094Z,28.60
2018-05-15T11:29:09.845Z,28.91
2018-05-15T11:30:10.581Z,29.20
2018-05-15T11:31:11.333Z,29.27
2018-05-15T11:32:12.088Z,28.88
2018-05-15T11:33:12.836Z,27.63
2018-05-15T11:34:13.576Z,27.92
2018-05-15T11:35:14.314Z,28.41
2018-05-15T11:36:15.052Z,28.20
2018-05-15T11:37:15.794Z,28.39
2018-05-15T11:38:16.531Z,28.49
2018-05-15T11:39:17.271Z,28.38
2018-05-15T11:40:18.010Z,29.10
2018-05-15T11:41:18.749Z,29.47
2018-05-15T11:42:19.493Z,29.19
2018-05-15T11:43:20.230Z,29.36
2018-05-15T11:44:20.969Z,29.24
2018-05-15T11:45:21.709Z,29.60
2018-05-15T11:46:22.452Z,28.62
2018-05-15T11:47:23.216Z,28.51
2018-05-15T11:48:24.394Z,28.62
2018-05-15T11:49:25.607Z,28.74
2018-05-15T11:50:26.435Z,29.17
2018-05-15T11:51:27.241Z,29.59
2018-05-15T11:52:27.402Z,29.66
2018-05-15T11:53:27.664Z,29.78
2018-05-15T11:54:28.406Z,29.42
2018-05-15T11:55:35.291Z,29.68
2018-05-15T11:56:29.961Z,29.87
2018-05-15T11:57:30.628Z,30.08
2018-05-15T11:58:31.379Z,30.39
2018-05-15T11:59:32.117Z,30.53
2018-05-15T12:00:32.859Z,30.65
2018-05-15T12:01:33.599Z,30.87
2018-05-15T12:02:34.368Z,31.00
2018-05-15T12:03:35.078Z,30.97
2018-05-15T12:04:35.820Z,30.92
2018-05-15T12:05:36.557Z,31.12
2018-05-15T12:06:37.330Z,30.96
2018-05-15T12:07:38.033Z,31.02
2018-05-15T12:08:38.771Z,30.91
2018-05-15T12:09:39.508Z,30.54
2018-05-15T12:10:40.346Z,30.57
2018-05-15T12:11:40.990Z,30.62
2018-05-15T12:12:41.721Z,30.87
2018-05-15T12:13:42.466Z,30.63
2018-05-15T12:14:43.215Z,30.63
2018-05-15T12:15:43.955Z,30.68
2018-05-15T12:16:44.695Z,30.87
2018-05-15T12:17:45.435Z,30.59
2018-05-15T12:18:46.175Z,29.86
2018-05-15T12:19:46.913Z,28.91
2018-05-15T12:20:47.656Z,28.26
2018-05-15T12:21:48.406Z,28.89
2018-05-15T12:22:49.160Z,29.44
2018-05-15T12:23:49.898Z,30.06
2018-05-15T12:24:50.640Z,30.51
2018-05-15T12:25:51.378Z,30.48
2018-05-15T12:26:52.132Z,29.17
2018-05-15T12:27:52.869Z,29.45
2018-05-15T12:28:53.609Z,29.73
2018-05-15T12:29:54.428Z,29.93
2018-05-15T12:30:55.085Z,30.47
2018-05-15T12:31:55.835Z,30.53
2018-05-15T12:32:56.586Z,30.77
2018-05-15T12:33:57.323Z,31.02
2018-05-15T12:34:58.065Z,31.22
2018-05-15T12:35:58.803Z,31.62
2018-05-15T12:36:59.542Z,31.66
2018-05-15T12:38:00.281Z,32.03
2018-05-15T12:39:01.021Z,31.76
2018-05-15T12:40:01.759Z,31.73
2018-05-15T12:41:02.498Z,31.92
2018-05-15T12:42:03.382Z,31.64
2018-05-15T12:43:04.002Z,31.42
2018-05-15T12:44:04.740Z,31.43
2018-05-15T12:45:05.480Z,30.78
2018-05-15T12:46:06.219Z,30.23
2018-05-15T12:47:06.959Z,30.65
2018-05-15T12:48:07.744Z,30.75
2018-05-15T12:49:08.447Z,30.72
2018-05-15T12:50:09.190Z,30.48
2018-05-15T12:51:09.926Z,30.55
2018-05-15T12:52:10.664Z,30.48
2018-05-15T12:53:11.407Z,29.22
2018-05-15T12:54:12.281Z,28.96
2018-05-15T12:55:12.885Z,28.81
2018-05-15T12:56:13.624Z,29.29
2018-05-15T12:57:14.373Z,29.19
2018-05-15T12:58:15.113Z,29.71
2018-05-15T12:59:15.861Z,30.09
2018-05-15T13:00:16.611Z,30.61
2018-05-15T13:01:17.354Z,30.47
2018-05-15T13:02:18.089Z,30.51